Time;durP1;ratioP1;P1;durP2;ratioP2;P2;SDS_P1;SDS_P2;PMS_P1;PMS_P2;Temp;Humidity;BMP_temperature;BMP_pressure;BME280_temperature;BME280_humidity;BME280_pressure;Samples;Min_cycle;Max_cycle;Signal;HPM_P1;HPM_P2
2023/12/06 00:00:22;;;;;;;26.77;13.85;;;2.10;99.90;;;;;;5111614;28;20067;-88
2023/12/06 00:02:49;;;;;;;29.92;15.40;;;2.10;99.90;;;;;;5113953;27;20035;-89
2023/12/06 00:05:15;;;;;;;31.27;16.10;;;2.10;99.90;;;;;;5095077;28;20501;-88
2023/12/06 00:07:41;;;;;;;24.35;12.75;;;2.10;99.90;;;;;;5097859;28;20051;-88
2023/12/06 00:10:07;;;;;;;31.00;14.98;;;2.10;99.90;;;;;;5091429;28;20078;-88
2023/12/06 00:12:33;;;;;;;31.45;15.27;;;2.10;99.90;;;;;;5116558;27;20096;-88
2023/12/06 00:14:58;;;;;;;31.70;14.25;;;2.10;99.90;;;;;;5097947;27;20035;-88
2023/12/06 00:17:24;;;;;;;29.67;16.40;;;2.10;99.90;;;;;;5111750;27;20081;-88
2023/12/06 00:19:50;;;;;;;27.15;14.32;;;2.10;99.90;;;;;;5112078;27;20028;-88
2023/12/06 00:22:15;;;;;;;25.52;15.18;;;2.10;99.90;;;;;;5113445;27;20502;-88
2023/12/06 00:24:41;;;;;;;30.80;16.00;;;2.20;99.90;;;;;;5111687;28;20146;-88
2023/12/06 00:27:06;;;;;;;28.73;14.75;;;2.10;99.90;;;;;;5096401;28;20032;-89
2023/12/06 00:29:32;;;;;;;24.70;13.48;;;2.10;99.90;;;;;;5113746;27;20035;-88
2023/12/06 00:31:58;;;;;;;32.55;15.13;;;2.10;99.90;;;;;;5112065;28;20039;-88
2023/12/06 00:34:23;;;;;;;27.20;14.40;;;2.20;99.90;;;;;;5121212;27;20031;-89
2023/12/06 00:36:49;;;;;;;26.90;15.20;;;2.20;99.90;;;;;;5111196;28;20043;-88
2023/12/06 00:39:15;;;;;;;27.25;12.65;;;2.10;99.90;;;;;;5119043;27;20039;-87
2023/12/06 00:41:43;;;;;;;28.08;14.82;;;2.10;99.90;;;;;;5116176;27;20506;-88
2023/12/06 00:44:09;;;;;;;31.83;17.85;;;2.10;99.90;;;;;;5096502;28;20152;-88
2023/12/06 00:46:35;;;;;;;27.13;15.43;;;2.10;99.90;;;;;;5129215;27;20456;-89
2023/12/06 00:49:03;;;;;;;26.08;14.05;;;2.20;99.90;;;;;;5092295;28;20122;-89
2023/12/06 00:51:28;;;;;;;23.30;12.77;;;2.10;99.90;;;;;;5088607;28;20085;-88
2023/12/06 00:53:54;;;;;;;29.30;15.15;;;2.10;99.90;;;;;;5096173;28;20047;-89
2023/12/06 00:56:19;;;;;;;28.73;14.73;;;2.20;99.90;;;;;;5095419;28;20078;-89
2023/12/06 00:58:45;;;;;;;26.92;12.80;;;2.20;99.90;;;;;;5103895;28;20088;-89
2023/12/06 01:01:12;;;;;;;26.60;13.75;;;2.20;99.90;;;;;;5098811;27;20035;-88
2023/12/06 01:03:39;;;;;;;25.60;13.43;;;2.20;99.90;;;;;;5097407;28;20085;-89
2023/12/06 01:06:04;;;;;;;30.02;15.93;;;2.20;99.90;;;;;;5097146;28;20039;-89
2023/12/06 01:08:30;;;;;;;33.72;14.35;;;2.20;99.90;;;;;;5095456;28;20042;-89
2023/12/06 01:10:56;;;;;;;27.08;14.63;;;2.20;99.90;;;;;;5094595;28;20511;-89
2023/12/06 01:13:21;;;;;;;27.42;12.73;;;2.20;99.90;;;;;;5094013;28;20032;-89
2023/12/06 01:15:47;;;;;;;26.83;12.98;;;2.20;99.90;;;;;;5095078;28;20062;-89
2023/12/06 01:18:13;;;;;;;28.85;14.48;;;2.20;99.90;;;;;;5094956;28;20487;-89
2023/12/06 01:20:39;;;;;;;25.73;13.38;;;2.20;99.90;;;;;;5111847;28;20075;-89
2023/12/06 01:23:05;;;;;;;24.48;12.80;;;2.20;99.90;;;;;;5094761;28;20058;-89
2023/12/06 01:25:32;;;;;;;24.23;13.25;;;2.20;99.90;;;;;;5146359;27;20031;-89
2023/12/06 01:27:58;;;;;;;29.65;15.65;;;2.20;99.90;;;;;;5094938;28;20035;-89
2023/12/06 01:30:24;;;;;;;30.77;15.70;;;2.20;99.90;;;;;;5094637;28;20044;-89
2023/12/06 01:32:50;;;;;;;30.02;15.52;;;2.20;99.90;;;;;;5111960;28;20039;-89
2023/12/06 01:35:15;;;;;;;29.88;15.57;;;2.20;99.90;;;;;;5146209;27;20044;-89
2023/12/06 01:37:41;;;;;;;28.17;14.63;;;2.30;99.90;;;;;;5111654;28;20035;-89
2023/12/06 01:40:08;;;;;;;27.60;14.45;;;2.20;99.90;;;;;;5145963;27;20136;-89
2023/12/06 01:42:34;;;;;;;23.80;11.80;;;2.20;99.90;;;;;;5094491;28;20092;-89
2023/12/06 01:45:00;;;;;;;25.10;14.07;;;2.20;99.90;;;;;;5145825;27;20380;-89
2023/12/06 01:47:27;;;;;;;29.33;14.68;;;2.30;99.90;;;;;;5111413;28;20525;-89
2023/12/06 01:49:56;;;;;;;28.92;15.25;;;2.30;99.90;;;;;;5094219;28;20058;-89
2023/12/06 01:52:21;;;;;;;26.52;14.63;;;2.30;99.90;;;;;;5094361;28;20118;-89
2023/12/06 01:54:48;;;;;;;27.45;13.65;;;2.30;99.90;;;;;;5094321;28;20603;-89
2023/12/06 01:57:14;;;;;;;28.10;15.98;;;2.30;99.90;;;;;;5094108;28;20077;-89
2023/12/06 01:59:40;;;;;;;27.70;14.90;;;2.30;99.90;;;;;;5111328;28;20070;-89
2023/12/06 02:02:06;;;;;;;34.03;17.10;;;2.30;99.90;;;;;;5094254;28;20042;-89
2023/12/06 02:04:33;;;;;;;28.13;15.02;;;2.30;99.90;;;;;;5094191;28;20036;-89
2023/12/06 02:06:59;;;;;;;26.73;13.70;;;2.30;99.90;;;;;;5111156;28;20040;-89
2023/12/06 02:09:27;;;;;;;27.92;14.93;;;2.30;99.90;;;;;;5094114;28;20055;-89
2023/12/06 02:11:53;;;;;;;26.27;13.10;;;2.30;99.90;;;;;;5145104;27;20075;-89
2023/12/06 02:14:19;;;;;;;22.20;12.38;;;2.30;99.90;;;;;;5128086;27;20035;-89
2023/12/06 02:16:45;;;;;;;26.13;15.27;;;2.30;99.90;;;;;;5145129;27;20564;-89
2023/12/06 02:19:18;;;;;;;29.85;15.05;;;2.30;99.90;;;;;;5093749;28;20103;-89
2023/12/06 02:21:44;;;;;;;;;;;2.30;99.90;;;;;;5094495;28;20562;-89
2023/12/06 02:24:12;;;;;;;27.45;13.20;;;2.30;99.90;;;;;;5110693;28;19915;-89
2023/12/06 02:26:38;;;;;;;34.45;18.23;;;2.30;99.90;;;;;;5093845;28;20035;-89
2023/12/06 02:29:03;;;;;;;29.63;14.18;;;2.30;99.90;;;;;;5110874;28;20104;-89
2023/12/06 02:31:29;;;;;;;32.47;15.77;;;2.40;99.90;;;;;;5085429;28;20055;-89
2023/12/06 02:33:58;;;;;;;26.15;14.80;;;2.40;99.90;;;;;;5093684;28;20097;-89
2023/12/06 02:36:25;;;;;;;25.05;13.60;;;2.30;99.90;;;;;;5093439;28;20039;-89
2023/12/06 02:38:51;;;;;;;28.60;14.02;;;2.30;99.90;;;;;;5145156;27;20402;-89
2023/12/06 02:41:18;;;;;;;25.23;13.98;;;2.30;99.90;;;;;;5110413;28;20497;-89
2023/12/06 02:43:47;;;;;;;24.80;12.23;;;2.30;99.90;;;;;;5144858;27;20047;-89
2023/12/06 02:46:12;;;;;;;27.13;12.93;;;2.40;99.90;;;;;;5110560;28;20047;-89
2023/12/06 02:48:38;;;;;;;26.27;13.40;;;2.40;99.90;;;;;;5093134;28;20039;-90
2023/12/06 02:51:05;;;;;;;29.15;15.90;;;2.40;99.90;;;;;;5093185;28;20035;-89
2023/12/06 02:53:30;;;;;;;24.38;12.75;;;2.40;99.90;;;;;;5092961;28;20040;-89
2023/12/06 02:55:56;;;;;;;26.80;14.35;;;2.40;99.90;;;;;;5092530;28;20088;-89
2023/12/06 02:58:21;;;;;;;28.45;13.70;;;2.40;99.90;;;;;;5110411;28;20058;-89
2023/12/06 03:00:47;;;;;;;27.88;12.88;;;2.40;99.90;;;;;;5093315;28;20046;-89
2023/12/06 03:03:13;;;;;;;27.30;11.32;;;2.40;99.90;;;;;;5093464;28;20032;-89
2023/12/06 03:05:38;;;;;;;21.48;11.50;;;2.40;99.90;;;;;;5089634;28;20054;-89
2023/12/06 03:08:04;;;;;;;28.60;14.82;;;2.40;99.90;;;;;;5109888;28;20070;-89
2023/12/06 03:10:29;;;;;;;24.63;12.48;;;2.40;99.90;;;;;;5110307;28;20043;-89
2023/12/06 03:12:55;;;;;;;27.58;14.85;;;2.40;99.90;;;;;;5093279;28;20043;-88
2023/12/06 03:15:20;;;;;;;30.35;15.55;;;2.40;99.90;;;;;;5110417;28;20067;-88
2023/12/06 03:17:46;;;;;;;29.40;14.05;;;2.40;99.90;;;;;;5093053;28;20118;-87
2023/12/06 03:20:12;;;;;;;27.65;14.52;;;2.40;99.90;;;;;;5092990;28;20410;-88
2023/12/06 03:22:38;;;;;;;26.52;14.75;;;2.40;99.90;;;;;;5144236;27;20080;-88
2023/12/06 03:25:05;;;;;;;24.67;13.95;;;2.40;99.90;;;;;;5094943;28;20131;-88
2023/12/06 03:27:30;;;;;;;29.23;13.35;;;2.40;99.90;;;;;;5094725;28;20039;-87
2023/12/06 03:29:56;;;;;;;31.45;14.95;;;2.40;99.90;;;;;;5093758;28;20035;-88
2023/12/06 03:32:22;;;;;;;28.17;13.85;;;2.40;99.90;;;;;;5110042;28;20177;-88
2023/12/06 03:34:47;;;;;;;25.30;13.90;;;2.40;99.90;;;;;;5092931;28;20040;-88
2023/12/06 03:37:13;;;;;;;23.50;12.38;;;2.40;99.90;;;;;;5090581;28;20039;-89
2023/12/06 03:39:38;;;;;;;31.85;14.02;;;2.40;99.90;;;;;;5109495;28;20032;-89
2023/12/06 03:42:04;;;;;;;26.42;14.77;;;2.40;99.90;;;;;;5109881;28;20042;-88
2023/12/06 03:44:30;;;;;;;22.85;11.80;;;2.50;99.90;;;;;;5092820;28;20050;-88
2023/12/06 03:46:55;;;;;;;23.77;12.95;;;2.50;99.90;;;;;;5110133;28;20036;-89
2023/12/06 03:49:21;;;;;;;25.02;14.27;;;2.50;99.90;;;;;;5092392;28;20093;-88
2023/12/06 03:51:46;;;;;;;25.70;11.98;;;2.50;99.90;;;;;;5092790;28;20495;-89
2023/12/06 03:54:12;;;;;;;25.83;12.45;;;2.50;99.90;;;;;;5093033;28;20092;-89
2023/12/06 03:56:38;;;;;;;21.73;10.93;;;2.40;99.90;;;;;;5109661;28;20058;-88
2023/12/06 03:59:04;;;;;;;22.70;12.48;;;2.40;99.90;;;;;;5092732;28;20097;-89
2023/12/06 04:01:30;;;;;;;21.90;12.05;;;2.40;99.90;;;;;;5092594;28;20069;-89
2023/12/06 04:03:55;;;;;;;27.50;14.07;;;2.50;99.90;;;;;;5109834;28;20032;-89
2023/12/06 04:06:21;;;;;;;23.40;12.07;;;2.50;99.90;;;;;;5092560;28;20051;-89
2023/12/06 04:08:46;;;;;;;25.95;13.05;;;2.50;99.90;;;;;;5112925;28;20406;-88
2023/12/06 04:11:12;;;;;;;24.52;13.30;;;2.50;99.90;;;;;;5113470;28;20118;-89
2023/12/06 04:13:37;;;;;;;24.42;11.98;;;2.50;99.90;;;;;;5113630;28;20112;-89
2023/12/06 04:16:04;;;;;;;23.75;11.00;;;2.50;99.90;;;;;;5096412;28;20459;-88
2023/12/06 04:18:30;;;;;;;22.25;11.60;;;2.50;99.90;;;;;;5095308;28;20043;-88
2023/12/06 04:20:55;;;;;;;21.38;11.98;;;2.50;99.90;;;;;;5112795;28;20031;-89
2023/12/06 04:23:21;;;;;;;23.10;10.52;;;2.50;99.90;;;;;;5112872;28;20168;-88
2023/12/06 04:25:47;;;;;;;18.15;9.52;;;2.50;99.90;;;;;;5112513;28;20044;-88
2023/12/06 04:28:13;;;;;;;17.75;9.38;;;2.50;99.90;;;;;;5112080;28;20036;-89
2023/12/06 04:30:39;;;;;;;17.83;10.13;;;2.50;99.90;;;;;;5095255;28;20035;-89
2023/12/06 04:33:04;;;;;;;23.05;11.77;;;2.50;99.90;;;;;;5094900;28;20126;-89
2023/12/06 04:35:30;;;;;;;19.75;9.50;;;2.50;99.90;;;;;;5111906;28;20043;-88
2023/12/06 04:37:55;;;;;;;21.98;11.23;;;2.50;99.90;;;;;;5095055;28;20582;-88
2023/12/06 04:40:21;;;;;;;22.13;10.00;;;2.50;99.90;;;;;;5095229;28;20122;-88
2023/12/06 04:42:47;;;;;;;20.15;11.40;;;2.50;99.90;;;;;;5095561;28;20053;-88
2023/12/06 04:45:12;;;;;;;24.05;12.50;;;2.50;99.90;;;;;;5112835;28;20068;-88
2023/12/06 04:47:38;;;;;;;20.42;11.05;;;2.50;99.90;;;;;;5095442;28;20046;-88
2023/12/06 04:50:04;;;;;;;20.38;11.18;;;2.50;99.90;;;;;;5095159;28;20076;-89
2023/12/06 04:52:30;;;;;;;22.00;11.48;;;2.50;99.90;;;;;;5095036;28;20590;-88
2023/12/06 04:54:56;;;;;;;18.50;10.48;;;2.40;99.90;;;;;;5112451;28;20039;-88
2023/12/06 04:57:22;;;;;;;22.15;10.07;;;2.40;99.90;;;;;;5095547;28;20049;-89
2023/12/06 04:59:47;;;;;;;19.13;9.02;;;2.40;99.90;;;;;;5112477;28;20065;-89
2023/12/06 05:02:13;;;;;;;16.52;9.35;;;2.50;99.90;;;;;;5095621;28;20035;-89
2023/12/06 05:04:39;;;;;;;19.95;9.93;;;2.50;99.90;;;;;;5112075;28;20036;-90
2023/12/06 05:07:04;;;;;;;19.08;10.35;;;2.50;99.90;;;;;;5095286;28;20047;-90
2023/12/06 05:09:30;;;;;;;16.88;10.43;;;2.50;99.90;;;;;;5095583;28;20040;-89
2023/12/06 05:11:55;;;;;;;22.08;10.95;;;2.50;99.90;;;;;;5095632;28;20039;-90
2023/12/06 05:14:21;;;;;;;17.73;10.10;;;2.50;99.90;;;;;;5095079;28;20039;-89
2023/12/06 05:16:46;;;;;;;21.83;10.93;;;2.50;99.90;;;;;;5111948;28;20046;-89
2023/12/06 05:19:12;;;;;;;20.63;11.80;;;2.50;99.90;;;;;;5094189;28;20502;-89
2023/12/06 05:21:38;;;;;;;16.38;8.13;;;2.50;99.90;;;;;;5092729;28;20095;-89
2023/12/06 05:24:03;;;;;;;21.20;12.07;;;2.50;99.90;;;;;;5123064;27;20067;-89
2023/12/06 05:26:29;;;;;;;17.85;9.93;;;2.50;99.90;;;;;;5095173;28;20075;-89
2023/12/06 05:28:55;;;;;;;22.08;10.30;;;2.50;99.90;;;;;;5096524;28;20586;-90
2023/12/06 05:31:21;;;;;;;17.85;10.32;;;2.50;99.90;;;;;;5094719;28;20639;-89
2023/12/06 05:33:47;;;;;;;19.15;10.23;;;2.60;99.90;;;;;;5145844;27;20391;-90
2023/12/06 05:36:13;;;;;;;18.55;9.80;;;2.60;99.90;;;;;;5146135;27;20039;-89
2023/12/06 05:38:39;;;;;;;16.77;8.80;;;2.50;99.90;;;;;;5111567;28;20084;-89
2023/12/06 05:41:05;;;;;;;20.75;10.75;;;2.50;99.90;;;;;;5095012;28;20069;-89
2023/12/06 05:43:30;;;;;;;21.35;12.00;;;2.50;99.90;;;;;;5145949;27;20038;-89
2023/12/06 05:45:56;;;;;;;22.27;11.70;;;2.50;99.90;;;;;;5095622;28;20050;-89
2023/12/06 05:48:21;;;;;;;18.77;10.18;;;2.50;99.90;;;;;;5096183;28;20032;-89
2023/12/06 05:50:47;;;;;;;19.02;9.48;;;2.50;99.90;;;;;;5097814;28;20043;-89
2023/12/06 05:53:13;;;;;;;18.63;9.57;;;2.50;99.90;;;;;;5111556;28;20128;-89
2023/12/06 05:55:40;;;;;;;19.00;10.15;;;2.50;99.90;;;;;;5094177;28;20048;-89
2023/12/06 05:58:05;;;;;;;25.15;11.63;;;2.50;99.90;;;;;;5094119;28;20032;-89
2023/12/06 06:00:31;;;;;;;19.55;10.82;;;2.60;99.90;;;;;;5093643;28;20135;-89
2023/12/06 06:02:58;;;;;;;19.58;10.30;;;2.60;99.90;;;;;;5093933;28;20479;-89
2023/12/06 06:05:24;;;;;;;22.00;11.15;;;2.60;99.90;;;;;;5094145;28;20043;-89
2023/12/06 06:07:50;;;;;;;17.45;9.43;;;2.60;99.90;;;;;;5094056;28;20051;-89
2023/12/06 06:10:15;;;;;;;19.65;10.02;;;2.60;99.90;;;;;;5094067;28;20180;-89
2023/12/06 06:12:41;;;;;;;19.40;9.50;;;2.60;99.90;;;;;;5094373;28;20035;-90
2023/12/06 06:15:08;;;;;;;19.08;10.18;;;2.60;99.90;;;;;;5094271;28;20536;-89
2023/12/06 06:17:34;;;;;;;16.08;9.02;;;2.60;99.90;;;;;;5093776;28;20036;-89
2023/12/06 06:20:00;;;;;;;17.63;10.15;;;2.60;99.90;;;;;;5093777;28;20035;-89
2023/12/06 06:22:26;;;;;;;19.13;11.48;;;2.60;99.90;;;;;;5093657;28;20112;-89
2023/12/06 06:24:51;;;;;;;18.75;10.30;;;2.60;99.90;;;;;;5093708;28;20108;-89
2023/12/06 06:27:17;;;;;;;18.55;9.50;;;2.60;99.90;;;;;;5093825;28;20035;-90
2023/12/06 06:29:44;;;;;;;19.30;10.45;;;2.60;99.90;;;;;;5110546;28;20036;-89
2023/12/06 06:32:10;;;;;;;17.83;9.32;;;2.60;99.90;;;;;;5093708;28;20031;-89
2023/12/06 06:34:35;;;;;;;16.08;8.60;;;2.60;99.90;;;;;;5110523;28;20123;-89
2023/12/06 06:37:01;;;;;;;17.58;8.85;;;2.60;99.90;;;;;;5093746;28;20091;-89
2023/12/06 06:39:28;;;;;;;19.70;10.23;;;2.70;99.90;;;;;;5110450;28;20559;-89
2023/12/06 06:41:54;;;;;;;17.50;8.38;;;2.60;99.90;;;;;;5093621;28;20031;-89
2023/12/06 06:44:20;;;;;;;13.82;8.45;;;2.70;99.90;;;;;;5093615;28;20522;-89
2023/12/06 06:46:45;;;;;;;15.23;7.80;;;2.70;99.90;;;;;;5093589;28;20050;-89
2023/12/06 06:49:11;;;;;;;16.83;9.73;;;2.70;99.90;;;;;;5110652;28;20044;-88
2023/12/06 06:51:37;;;;;;;12.65;6.80;;;2.70;99.90;;;;;;5093424;28;20051;-89
2023/12/06 06:54:07;;;;;;;13.00;6.47;;;2.60;99.90;;;;;;5093351;28;20050;-89
2023/12/06 06:56:33;;;;;;;15.45;7.85;;;2.60;99.90;;;;;;5093379;28;20036;-89
2023/12/06 06:59:00;;;;;;;15.38;7.88;;;2.60;99.90;;;;;;5093576;28;20032;-89
2023/12/06 07:01:25;;;;;;;17.35;9.70;;;2.50;99.90;;;;;;5093128;28;20247;-89
2023/12/06 07:03:51;;;;;;;15.27;7.28;;;2.50;99.90;;;;;;5084811;28;20506;-89
2023/12/06 07:06:17;;;;;;;14.65;7.35;;;2.50;99.90;;;;;;5110139;28;20403;-89
2023/12/06 07:08:42;;;;;;;18.63;8.85;;;2.50;99.90;;;;;;5092538;28;20166;-89
2023/12/06 07:11:08;;;;;;;13.23;7.20;;;2.50;99.90;;;;;;5106270;28;20122;-89
2023/12/06 07:13:34;;;;;;;15.77;9.05;;;2.50;99.90;;;;;;5109287;28;20043;-88
2023/12/06 07:16:00;;;;;;;17.38;9.32;;;2.50;99.90;;;;;;5093180;28;20043;-88
2023/12/06 07:18:27;;;;;;;17.42;9.68;;;2.50;99.90;;;;;;5118874;28;20039;-85
2023/12/06 07:20:52;;;;;;;17.05;9.05;;;2.50;99.90;;;;;;5088802;28;20035;-88
2023/12/06 07:23:18;;;;;;;14.25;7.85;;;2.50;99.90;;;;;;5103134;28;20032;-88
2023/12/06 07:25:47;;;;;;;22.98;8.02;;;2.50;99.90;;;;;;5083314;28;20032;-88
2023/12/06 07:28:13;;;;;;;13.55;6.35;;;2.50;99.90;;;;;;5115968;28;20036;-88
2023/12/06 07:30:40;;;;;;;20.52;10.23;;;2.50;99.90;;;;;;5141497;27;20050;-88
2023/12/06 07:33:07;;;;;;;17.48;7.38;;;2.50;99.90;;;;;;5081477;28;20492;-88
2023/12/06 07:35:33;;;;;;;16.67;7.85;;;2.50;99.90;;;;;;5099584;28;20495;-88
2023/12/06 07:37:59;;;;;;;13.30;7.43;;;2.50;99.90;;;;;;5110285;28;20164;-87
2023/12/06 07:40:25;;;;;;;15.70;9.25;;;2.50;99.90;;;;;;5084466;28;20122;-89
2023/12/06 07:42:51;;;;;;;13.77;8.43;;;2.60;99.90;;;;;;5094781;28;20031;-88
2023/12/06 07:45:16;;;;;;;16.75;7.07;;;2.50;99.90;;;;;;5097232;28;20054;-89
2023/12/06 07:47:42;;;;;;;11.20;5.95;;;2.50;99.90;;;;;;5097213;28;20043;-89
2023/12/06 07:50:09;;;;;;;15.30;7.97;;;2.50;99.90;;;;;;5096053;28;20495;-88
2023/12/06 07:52:36;;;;;;;13.88;5.72;;;2.50;99.90;;;;;;5089943;28;20032;-88
2023/12/06 07:55:06;;;;;;;15.23;6.65;;;2.50;99.90;;;;;;5117134;27;20108;-88
2023/12/06 07:57:32;;;;;;;10.52;6.28;;;2.50;99.90;;;;;;5113438;27;20043;-88
2023/12/06 07:59:58;;;;;;;16.83;7.93;;;2.50;99.90;;;;;;5122359;27;20036;-88
2023/12/06 08:02:25;;;;;;;19.38;10.60;;;2.50;99.90;;;;;;5095608;28;20028;-88
2023/12/06 08:04:50;;;;;;;15.52;7.95;;;2.50;99.90;;;;;;5146797;27;20555;-88
2023/12/06 08:07:16;;;;;;;16.33;7.28;;;2.60;99.90;;;;;;5096619;28;20044;-88
2023/12/06 08:09:42;;;;;;;15.48;8.45;;;2.50;99.90;;;;;;5112988;27;20527;-88
2023/12/06 08:12:07;;;;;;;12.40;6.88;;;2.50;99.90;;;;;;5123793;27;20047;-88
2023/12/06 08:14:34;;;;;;;12.13;6.40;;;2.50;99.90;;;;;;5092540;28;20529;-88
2023/12/06 08:17:00;;;;;;;18.13;9.23;;;2.60;99.90;;;;;;5096042;28;20100;-89
2023/12/06 08:19:25;;;;;;;17.20;9.75;;;2.60;99.90;;;;;;5113763;27;20534;-87
2023/12/06 08:21:51;;;;;;;18.00;10.57;;;2.50;99.90;;;;;;5104629;27;20117;-88
2023/12/06 08:24:16;;;;;;;16.02;7.90;;;2.50;99.90;;;;;;5112020;27;20043;-88
2023/12/06 08:26:42;;;;;;;13.10;5.95;;;2.50;99.90;;;;;;5100224;27;20577;-87
2023/12/06 08:29:08;;;;;;;14.18;7.65;;;2.50;99.90;;;;;;5116279;27;20075;-88
2023/12/06 08:31:36;;;;;;;15.00;9.07;;;2.50;99.90;;;;;;5115294;27;20118;-90
2023/12/06 08:34:02;;;;;;;14.75;9.27;;;2.50;99.90;;;;;;5094547;28;20046;-88
2023/12/06 08:36:27;;;;;;;16.88;9.10;;;2.60;99.90;;;;;;5111272;28;20043;-88
2023/12/06 08:38:53;;;;;;;15.15;8.07;;;2.60;99.90;;;;;;5096920;28;20497;-88
2023/12/06 08:41:19;;;;;;;15.70;9.23;;;2.60;99.90;;;;;;5112219;28;20028;-88
2023/12/06 08:43:45;;;;;;;15.80;8.88;;;2.60;99.90;;;;;;5094602;27;20486;-86
2023/12/06 08:46:11;;;;;;;18.70;9.02;;;2.60;99.90;;;;;;5117687;27;20146;-87
2023/12/06 08:48:37;;;;;;;14.00;7.63;;;2.60;99.90;;;;;;5111959;28;20126;-86
2023/12/06 08:51:03;;;;;;;15.98;9.35;;;2.70;99.90;;;;;;5094441;28;20050;-86
2023/12/06 08:53:28;;;;;;;15.27;7.97;;;2.70;99.90;;;;;;5111045;28;20036;-86
2023/12/06 08:55:54;;;;;;;17.88;9.10;;;2.70;99.90;;;;;;5110602;27;20072;-87
2023/12/06 08:58:20;;;;;;;13.65;6.90;;;2.70;99.90;;;;;;5112000;28;20688;-87
2023/12/06 09:00:47;;;;;;;14.23;8.20;;;2.80;99.90;;;;;;5097332;28;20038;-87
2023/12/06 09:03:14;;;;;;;17.83;8.45;;;2.80;99.90;;;;;;5097783;28;20081;-87
2023/12/06 09:05:39;;;;;;;13.98;7.75;;;2.80;99.90;;;;;;5095049;28;20040;-87
2023/12/06 09:08:05;;;;;;;17.42;8.98;;;2.80;99.90;;;;;;5107498;27;20039;-86
2023/12/06 09:10:31;;;;;;;18.63;9.07;;;2.80;99.90;;;;;;5096184;28;20082;-88
2023/12/06 09:12:57;;;;;;;14.70;8.82;;;2.90;99.90;;;;;;5093540;27;20075;-87
2023/12/06 09:15:22;;;;;;;14.60;8.23;;;2.90;99.90;;;;;;5115368;27;20097;-87
2023/12/06 09:17:48;;;;;;;14.25;7.35;;;2.90;99.90;;;;;;5094460;28;20248;-87
2023/12/06 09:20:15;;;;;;;16.52;8.73;;;3.00;99.90;;;;;;5112459;27;20070;-88
2023/12/06 09:22:41;;;;;;;16.15;7.22;;;3.00;99.90;;;;;;5093035;28;20066;-88
2023/12/06 09:25:07;;;;;;;11.23;6.40;;;3.00;99.90;;;;;;5093549;28;20072;-87
2023/12/06 09:27:33;;;;;;;13.30;7.63;;;3.00;99.90;;;;;;5092294;28;20499;-88
2023/12/06 09:29:58;;;;;;;15.65;9.00;;;3.00;99.90;;;;;;5089471;27;20046;-89
2023/12/06 09:32:24;;;;;;;13.07;6.65;;;3.10;99.90;;;;;;5092130;28;20039;-88
2023/12/06 09:34:50;;;;;;;10.63;6.00;;;3.10;99.90;;;;;;5109925;28;20031;-87
2023/12/06 09:37:16;;;;;;;9.77;5.15;;;3.10;99.90;;;;;;5113133;27;20046;-87
2023/12/06 09:39:43;;;;;;;14.32;7.15;;;3.10;99.90;;;;;;5109379;28;20036;-87
2023/12/06 09:42:10;;;;;;;13.75;7.22;;;3.10;99.90;;;;;;5094044;27;20028;-87
2023/12/06 09:44:41;;;;;;;15.73;8.93;;;3.10;99.90;;;;;;5093155;28;20039;-87
2023/12/06 09:47:07;;;;;;;12.60;6.28;;;3.10;99.90;;;;;;5122154;27;20131;-87
2023/12/06 09:49:33;;;;;;;16.08;8.75;;;3.10;99.90;;;;;;5092416;28;20466;-87
2023/12/06 09:52:25;;;;;;;11.93;5.55;;;3.20;99.90;;;;;;5109603;28;20045;-86
2023/12/06 09:54:51;;;;;;;13.50;8.05;;;3.20;99.90;;;;;;5089243;28;20046;-87
2023/12/06 09:57:17;;;;;;;14.60;8.70;;;3.20;99.90;;;;;;5093119;28;20046;-87
2023/12/06 09:59:43;;;;;;;16.42;9.00;;;3.20;99.90;;;;;;5091612;28;20687;-87
2023/12/06 10:02:09;;;;;;;15.98;8.77;;;3.20;99.90;;;;;;5110716;27;20040;-88
2023/12/06 10:04:35;;;;;;;16.13;9.18;;;3.20;99.90;;;;;;5094368;28;20035;-88
2023/12/06 10:07:01;;;;;;;15.60;8.63;;;3.20;99.90;;;;;;5092727;28;20054;-87
2023/12/06 10:09:27;;;;;;;15.88;8.10;;;3.20;99.90;;;;;;5095242;28;20551;-87
2023/12/06 10:12:03;;;;;;;18.08;8.43;;;3.30;99.90;;;;;;5105424;27;20565;-88
2023/12/06 10:14:29;;;;;;;11.68;6.18;;;3.30;99.90;;;;;;5109534;27;20039;-88
2023/12/06 10:16:54;;;;;;;13.40;7.30;;;3.30;99.90;;;;;;5098843;28;20039;-87
2023/12/06 10:19:22;;;;;;;14.23;8.48;;;3.40;99.90;;;;;;5092186;28;20517;-87
2023/12/06 10:21:48;;;;;;;19.70;7.45;;;3.40;99.90;;;;;;5092576;28;20069;-87
2023/12/06 10:24:13;;;;;;;13.68;7.25;;;3.40;99.90;;;;;;5092627;28;20123;-87
2023/12/06 10:26:39;;;;;;;12.45;6.38;;;3.40;99.90;;;;;;5092148;28;20114;-88
2023/12/06 10:29:05;;;;;;;16.05;7.53;;;3.50;99.90;;;;;;5094081;28;20035;-88
2023/12/06 10:31:38;;;;;;;14.27;7.88;;;3.50;99.90;;;;;;5093051;28;20039;-88
2023/12/06 10:34:05;;;;;;;11.73;6.90;;;3.50;99.90;;;;;;5093333;28;20040;-87
2023/12/06 10:36:31;;;;;;;16.67;8.63;;;3.50;99.90;;;;;;5110771;27;20035;-88
2023/12/06 10:38:58;;;;;;;14.40;6.63;;;3.60;99.90;;;;;;5095279;27;20027;-88
2023/12/06 10:41:25;;;;;;;16.65;8.23;;;3.60;99.90;;;;;;5095585;28;20038;-88
2023/12/06 10:43:55;;;;;;;21.50;8.90;;;3.60;99.90;;;;;;5083762;27;20039;-88
2023/12/06 10:46:21;;;;;;;13.20;8.00;;;3.70;99.90;;;;;;5111737;27;20403;-88
2023/12/06 10:48:48;;;;;;;16.00;7.25;;;3.60;99.90;;;;;;5092532;28;20122;-88
2023/12/06 10:51:16;;;;;;;13.70;6.45;;;3.60;99.90;;;;;;5092659;28;20043;-87
2023/12/06 10:53:44;;;;;;;10.50;5.70;;;3.70;99.90;;;;;;5108287;28;20043;-87
2023/12/06 10:56:10;;;;;;;13.55;6.60;;;3.70;99.90;;;;;;5109480;28;20046;-87
2023/12/06 10:58:37;;;;;;;12.77;6.93;;;3.70;99.90;;;;;;5092323;28;20038;-87
2023/12/06 11:01:04;;;;;;;12.23;7.55;;;3.70;99.90;;;;;;5092329;28;20034;-88
2023/12/06 11:03:30;;;;;;;12.82;6.65;;;3.70;99.90;;;;;;5093689;28;20137;-88
2023/12/06 11:06:02;;;;;;;21.15;7.07;;;3.70;99.90;;;;;;5108924;28;20118;-88
2023/12/06 11:08:37;;;;;;;12.18;5.72;;;3.70;99.90;;;;;;5091834;28;20039;-88
2023/12/06 11:11:17;;;;;;;15.00;8.02;;;3.70;99.90;;;;;;5091833;28;20039;-88
2023/12/06 11:14:20;;;;;;;13.52;6.75;;;3.80;99.90;;;;;;5091861;28;20099;-88
2023/12/06 11:17:12;;;;;;;12.35;6.50;;;3.80;99.90;;;;;;5091790;28;20040;-88
2023/12/06 11:19:38;;;;;;;11.80;6.80;;;3.80;99.90;;;;;;5112686;27;20035;-88
2023/12/06 11:22:04;;;;;;;13.02;7.18;;;3.80;99.90;;;;;;5096511;28;20111;-89
2023/12/06 11:24:30;;;;;;;11.35;5.30;;;3.90;99.90;;;;;;5097202;27;20039;-88
2023/12/06 11:26:56;;;;;;;11.90;6.88;;;3.90;99.90;;;;;;5095100;28;20027;-88
2023/12/06 11:29:26;;;;;;;11.30;5.15;;;3.80;99.90;;;;;;5095362;28;20035;-89
2023/12/06 11:31:56;;;;;;;12.95;7.80;;;3.90;99.90;;;;;;5111867;27;20100;-88
2023/12/06 11:34:36;;;;;;;17.52;7.57;;;3.80;99.90;;;;;;5095421;28;20085;-88
2023/12/06 11:37:06;;;;;;;14.68;6.28;;;3.90;99.90;;;;;;5099968;27;20031;-88
2023/12/06 11:39:32;;;;;;;12.63;5.90;;;3.90;99.90;;;;;;5121569;27;20031;-87
2023/12/06 11:41:59;;;;;;;12.65;6.55;;;3.80;99.90;;;;;;5104024;28;20036;-88
2023/12/06 11:44:25;;;;;;;16.30;8.15;;;3.90;99.90;;;;;;5113658;27;20039;-88
2023/12/06 11:46:52;;;;;;;12.23;5.50;;;3.90;99.90;;;;;;5112678;28;20047;-88
2023/12/06 11:49:25;;;;;;;10.18;5.97;;;3.80;99.90;;;;;;5113408;27;20518;-88
2023/12/06 11:51:58;;;;;;;16.48;7.63;;;3.80;99.90;;;;;;5107227;28;20066;-88
2023/12/06 11:54:25;;;;;;;11.45;5.78;;;3.80;99.90;;;;;;5095991;28;20092;-87
2023/12/06 11:56:50;;;;;;;14.77;6.20;;;3.80;99.90;;;;;;5101519;28;20043;-89
2023/12/06 11:59:17;;;;;;;13.75;6.43;;;3.90;99.90;;;;;;5095231;28;20047;-89
2023/12/06 12:01:42;;;;;;;11.95;5.30;;;3.90;99.90;;;;;;5095502;27;20046;-88
2023/12/06 12:04:09;;;;;;;11.52;5.10;;;3.90;99.90;;;;;;5120122;27;20039;-89
2023/12/06 12:06:35;;;;;;;12.80;5.70;;;3.90;99.90;;;;;;5094930;28;20080;-88
2023/12/06 12:09:00;;;;;;;15.07;6.10;;;3.90;99.90;;;;;;5112125;27;20122;-88
2023/12/06 12:11:27;;;;;;;11.18;4.35;;;4.00;99.90;;;;;;5094950;28;20051;-88
2023/12/06 12:13:53;;;;;;;8.48;4.20;;;4.00;99.90;;;;;;5092992;28;20067;-88
2023/12/06 12:16:21;;;;;;;7.60;3.53;;;4.00;99.90;;;;;;5095205;28;20410;-88
2023/12/06 12:18:46;;;;;;;9.77;5.25;;;4.00;99.90;;;;;;5096462;28;20542;-88
2023/12/06 12:21:19;;;;;;;14.07;7.70;;;4.00;99.90;;;;;;5095938;28;20150;-87
2023/12/06 12:23:48;;;;;;;12.10;5.43;;;4.00;99.90;;;;;;5111614;28;20035;-88
2023/12/06 12:26:15;;;;;;;9.98;5.78;;;4.10;99.90;;;;;;5095047;28;20103;-88
2023/12/06 12:28:41;;;;;;;13.57;6.22;;;4.00;99.90;;;;;;5094235;28;20440;-88
2023/12/06 12:31:13;;;;;;;13.32;5.97;;;4.00;99.90;;;;;;5094531;28;20042;-88
2023/12/06 12:33:40;;;;;;;9.35;4.18;;;4.00;99.90;;;;;;5111475;28;20043;-89
2023/12/06 12:36:06;;;;;;;16.13;5.22;;;4.00;99.90;;;;;;5113949;27;20082;-88
2023/12/06 12:38:33;;;;;;;11.25;5.35;;;4.00;99.90;;;;;;5091776;28;20031;-88